Time;durP1;ratioP1;P1;durP2;ratioP2;P2;SDS_P1;SDS_P2;PMS_P1;PMS_P2;Temp;Humidity;BMP_temperature;BMP_pressure;BME280_temperature;BME280_humidity;BME280_pressure;Samples;Min_cycle;Max_cycle;Signal;HPM_P1;HPM_P2
2022/08/15 00:02:06;;;;;;;;;;;24.50;99.90;;;;;;4399068;32;19945;-74
2022/08/15 00:04:32;;;;;;;;;;;24.50;99.90;;;;;;4385775;32;19954;-74
2022/08/15 00:06:58;;;;;;;;;;;24.50;99.90;;;;;;4384402;32;20354;-75
2022/08/15 00:09:23;;;;;;;;;;;24.40;99.90;;;;;;4397043;32;19956;-75
2022/08/15 00:11:51;;;;;;;;;;;24.40;99.90;;;;;;4398855;32;20093;-75
2022/08/15 00:14:19;;;;;;;;;;;24.20;99.90;;;;;;4400039;32;19949;-75
2022/08/15 00:16:47;;;;;;;;;;;24.10;99.90;;;;;;4398410;32;19953;-75
2022/08/15 00:19:15;;;;;;;;;;;24.10;99.90;;;;;;4399513;32;20003;-75
2022/08/15 00:21:44;;;;;;;;;;;24.10;99.90;;;;;;4398961;32;20003;-75
2022/08/15 00:24:11;;;;;;;;;;;24.10;99.90;;;;;;4399850;32;20368;-75
2022/08/15 00:26:36;;;;;;;;;;;24.00;99.90;;;;;;4398370;32;20003;-75
2022/08/15 00:29:03;;;;;;;;;;;24.00;99.90;;;;;;4399192;32;19961;-75
2022/08/15 00:31:31;;;;;;;;;;;24.00;99.90;;;;;;4399620;32;19999;-75
2022/08/15 00:33:57;;;;;;;;;;;23.90;99.90;;;;;;4398733;32;19957;-75
2022/08/15 00:36:22;;;;;;;;;;;23.80;99.90;;;;;;4398421;32;19949;-75
2022/08/15 00:38:48;;;;;;;;;;;23.90;99.90;;;;;;4398718;32;19963;-75
2022/08/15 00:41:48;;;;;;;;;;;23.90;99.90;;;;;;4398598;32;20003;-75
2022/08/15 00:44:02;;;;;;;;;;;23.90;99.90;;;;;;4387322;32;19961;-75
2022/08/15 00:46:29;;;;;;;;;;;23.90;99.90;;;;;;4401632;32;19950;-75
2022/08/15 00:48:55;;;;;;;;;;;23.90;99.90;;;;;;4398348;32;19949;-75
2022/08/15 00:51:24;;;;;;;;;;;23.90;99.90;;;;;;4399594;32;19954;-75
2022/08/15 00:53:55;;;;;;;;;;;23.80;99.90;;;;;;4399311;32;19953;-75
2022/08/15 00:56:24;;;;;;;;;;;23.80;99.90;;;;;;4397877;32;19950;-75
2022/08/15 00:58:50;;;;;;;;;;;23.80;99.90;;;;;;4399215;32;19946;-74
2022/08/15 01:01:15;;;;;;;;;;;23.80;99.90;;;;;;4399228;32;19981;-75
2022/08/15 01:03:44;;;;;;;;;;;23.90;99.90;;;;;;4398014;32;19995;-75
2022/08/15 01:06:09;;;;;;;;;;;23.80;99.90;;;;;;4385150;32;20338;-75
2022/08/15 01:08:36;;;;;;;;;;;23.70;99.90;;;;;;4391732;32;19956;-75
2022/08/15 01:11:04;;;;;;;;;;;23.80;99.90;;;;;;4401152;32;20013;-75
2022/08/15 01:13:30;;;;;;;;;;;23.70;99.90;;;;;;4401805;32;19957;-75
2022/08/15 01:15:56;;;;;;;;;;;23.60;99.90;;;;;;4401834;32;19946;-75
2022/08/15 01:18:21;;;;;;;;;;;23.60;99.90;;;;;;4401110;32;19964;-75
2022/08/15 01:20:47;;;;;;;;;;;23.50;99.90;;;;;;4400732;32;19989;-75
2022/08/15 01:23:14;;;;;;;;;;;23.50;99.90;;;;;;4401528;32;19954;-74
2022/08/15 01:25:42;;;;;;;;;;;23.40;99.90;;;;;;4401348;32;20326;-74
2022/08/15 01:28:11;;;;;;;;;;;23.30;99.90;;;;;;4401636;32;20397;-75
2022/08/15 01:30:38;;;;;;;;;;;23.30;99.90;;;;;;4401700;32;19969;-75
2022/08/15 01:33:04;;;;;;;;;;;23.30;99.90;;;;;;4402107;32;20450;-75
2022/08/15 01:35:29;;;;;;;;;;;23.20;99.90;;;;;;4399988;32;19949;-75
2022/08/15 01:37:57;;;;;;;;;;;23.20;99.90;;;;;;4400531;32;19953;-75
2022/08/15 01:40:42;;;;;;;;;;;23.20;99.90;;;;;;4401161;32;19954;-75
2022/08/15 01:43:09;;;;;;;;;;;23.10;99.90;;;;;;4390431;32;19954;-75
2022/08/15 01:45:35;;;;;;;;;;;23.00;99.90;;;;;;4401142;32;20358;-75
2022/08/15 01:48:06;;;;;;;;;;;23.00;99.90;;;;;;4401115;32;19949;-75
2022/08/15 01:50:39;;;;;;;;;;;23.00;99.90;;;;;;4401139;32;19956;-75
2022/08/15 01:53:08;;;;;;;;;;;23.00;99.90;;;;;;4401571;32;19945;-75
2022/08/15 01:55:40;;;;;;;;;;;22.90;99.90;;;;;;4407651;32;19945;-75
2022/08/15 01:58:06;;;;;;;;;;;22.90;99.90;;;;;;4416497;32;19955;-75
2022/08/15 02:00:32;;;;;;;;;;;23.00;99.90;;;;;;4412141;32;19990;-75
2022/08/15 02:02:58;;;;;;;;;;;22.90;99.90;;;;;;4400355;32;19966;-74
2022/08/15 02:05:24;;;;;;;;;;;22.90;99.90;;;;;;4392061;32;19946;-74
2022/08/15 02:07:49;;;;;;;;;;;22.80;99.90;;;;;;4385507;32;19954;-74
2022/08/15 02:10:14;;;;;;;;;;;22.80;99.90;;;;;;4386192;32;19949;-74
2022/08/15 02:12:40;;;;;;;;;;;22.70;99.90;;;;;;4400771;32;19973;-75
2022/08/15 02:15:12;;;;;;;;;;;22.80;99.90;;;;;;4400253;32;19946;-75
2022/08/15 02:17:38;;;;;;;;;;;22.70;99.90;;;;;;4401106;32;19949;-75
2022/08/15 02:20:04;;;;;;;;;;;22.70;99.90;;;;;;4400692;32;19946;-74
2022/08/15 02:22:29;;;;;;;;;;;22.70;99.90;;;;;;4400817;32;19960;-74
2022/08/15 02:24:56;;;;;;;;;;;22.70;99.90;;;;;;4400135;32;19942;-74
2022/08/15 02:27:21;;;;;;;;;;;22.70;99.90;;;;;;4401084;32;19999;-74
2022/08/15 02:29:47;;;;;;;;;;;22.70;99.90;;;;;;4400786;32;20349;-74
2022/08/15 02:32:15;;;;;;;;;;;22.60;99.90;;;;;;4399843;32;20334;-75
2022/08/15 02:34:41;;;;;;;;;;;22.60;99.90;;;;;;4400240;32;20358;-75
2022/08/15 02:37:08;;;;;;;;;;;22.60;99.90;;;;;;4400117;32;19949;-74
2022/08/15 02:39:34;;;;;;;;;;;22.50;99.90;;;;;;4400867;32;20311;-75
2022/08/15 02:41:59;;;;;;;;;;;22.60;99.90;;;;;;4399616;32;19956;-75
2022/08/15 02:44:25;;;;;;;;;;;22.60;99.90;;;;;;4405500;32;20004;-74
2022/08/15 02:46:52;;;;;;;;;;;22.60;99.90;;;;;;4405234;32;19965;-75
2022/08/15 02:49:18;;;;;;;;;;;22.50;99.90;;;;;;4399651;32;20028;-75
2022/08/15 02:51:44;;;;;;;;;;;22.60;99.90;;;;;;4401158;32;19946;-74
2022/08/15 02:54:10;;;;;;;;;;;22.50;99.90;;;;;;4404136;32;19942;-75
2022/08/15 02:56:35;;;;;;;;;;;22.40;99.90;;;;;;4415381;32;19954;-75
2022/08/15 02:59:02;;;;;;;;;;;22.40;99.90;;;;;;4415386;32;19945;-75
2022/08/15 03:01:27;;;;;;;;;;;22.40;99.90;;;;;;4415666;32;20234;-75
2022/08/15 03:03:54;;;;;;;;;;;22.40;99.90;;;;;;4414252;32;19987;-74
2022/08/15 03:06:22;;;;;;;;;;;22.40;99.90;;;;;;4399649;32;20420;-75
2022/08/15 03:08:48;;;;;;;;;;;22.40;99.90;;;;;;4400277;32;20326;-75
2022/08/15 03:11:13;;;;;;;;;;;22.40;99.90;;;;;;4399807;32;19948;-75
2022/08/15 03:13:40;;;;;;;;;;;22.40;99.90;;;;;;4400020;32;19960;-75
2022/08/15 03:16:06;;;;;;;;;;;22.30;99.90;;;;;;4399414;32;19964;-75
2022/08/15 03:18:33;;;;;;;;;;;22.30;99.90;;;;;;4399799;32;20311;-75
2022/08/15 03:21:00;;;;;;;;;;;22.30;99.90;;;;;;4400453;32;20353;-75
2022/08/15 03:23:27;;;;;;;;;;;22.30;99.90;;;;;;4398523;32;20391;-75
2022/08/15 03:25:54;;;;;;;;;;;22.20;99.90;;;;;;4399369;32;20013;-74
2022/08/15 03:28:23;;;;;;;;;;;22.20;99.90;;;;;;4400653;32;19945;-75
2022/08/15 03:30:48;;;;;;;;;;;22.20;99.90;;;;;;4400657;32;20012;-74
2022/08/15 03:33:15;;;;;;;;;;;22.20;99.90;;;;;;4399333;32;19956;-74
2022/08/15 03:35:43;;;;;;;;;;;22.20;99.90;;;;;;4398654;32;20329;-75
2022/08/15 03:38:08;;;;;;;;;;;22.20;99.90;;;;;;4399916;32;19950;-75
2022/08/15 03:40:35;;;;;;;;;;;22.30;99.90;;;;;;4399143;32;19945;-75
2022/08/15 03:43:02;;;;;;;;;;;22.30;99.90;;;;;;4399590;32;20303;-75
2022/08/15 03:45:28;;;;;;;;;;;22.40;99.90;;;;;;4399178;32;19961;-75
2022/08/15 03:47:54;;;;;;;;;;;22.40;99.90;;;;;;4406971;32;20331;-75
2022/08/15 03:50:20;;;;;;;;;;;22.20;99.90;;;;;;4414417;32;19950;-75
2022/08/15 03:52:48;;;;;;;;;;;22.20;99.90;;;;;;4415301;32;20319;-75
2022/08/15 03:55:14;;;;;;;;;;;22.20;99.90;;;;;;4414159;32;19998;-75
2022/08/15 03:57:39;;;;;;;;;;;22.20;99.90;;;;;;4414087;32;19983;-75
2022/08/15 04:00:07;;;;;;;;;;;22.20;99.90;;;;;;4402781;32;19941;-75
2022/08/15 04:02:32;;;;;;;;;;;22.10;99.90;;;;;;4399708;32;19949;-75
2022/08/15 04:04:57;;;;;;;;;;;22.20;99.90;;;;;;4399067;32;20001;-75
2022/08/15 04:07:23;;;;;;;;;;;22.10;99.90;;;;;;4398715;32;20382;-74
2022/08/15 04:09:49;;;;;;;;;;;22.10;99.90;;;;;;4398591;32;19957;-74
2022/08/15 04:12:27;;;;;;;;;;;22.10;99.90;;;;;;4398967;32;20419;-74
2022/08/15 04:14:53;;;;;;;;;;;22.00;99.90;;;;;;4395504;32;19961;-75
2022/08/15 04:17:19;;;;;;;;;;;22.10;99.90;;;;;;4384700;32;20008;-74
2022/08/15 04:19:45;;;;;;;;;;;22.10;99.90;;;;;;4384192;32;19950;-75
2022/08/15 04:22:10;;;;;;;;;;;22.10;99.90;;;;;;4384336;32;19950;-75
2022/08/15 04:24:36;;;;;;;;;;;22.10;99.90;;;;;;4384231;32;19970;-74
2022/08/15 04:27:01;;;;;;;;;;;22.10;99.90;;;;;;4384008;32;20379;-74
2022/08/15 04:29:27;;;;;;;;;;;22.10;99.90;;;;;;4395447;32;20377;-74
2022/08/15 04:31:54;;;;;;;;;;;22.00;99.90;;;;;;4398500;32;19957;-74
2022/08/15 04:34:19;;;;;;;;;;;22.00;99.90;;;;;;4399650;32;20402;-74
2022/08/15 04:36:46;;;;;;;;;;;21.90;99.90;;;;;;4398141;32;19995;-74
2022/08/15 04:39:12;;;;;;;;;;;21.90;99.90;;;;;;4398514;32;20267;-74
2022/08/15 04:41:37;;;;;;;;;;;22.00;99.90;;;;;;4398672;32;20008;-74
2022/08/15 04:44:03;;;;;;;;;;;22.00;99.90;;;;;;4399731;32;19949;-74
2022/08/15 04:46:29;;;;;;;;;;;22.00;99.90;;;;;;4401566;32;20365;-74
2022/08/15 04:48:54;;;;;;;;;;;21.90;99.90;;;;;;4402662;32;19991;-74
2022/08/15 04:51:20;;;;;;;;;;;21.90;99.90;;;;;;4399312;32;84434;-74
2022/08/15 04:53:46;;;;;;;;;;;21.90;99.90;;;;;;4404661;32;20005;-74
2022/08/15 04:56:11;;;;;;;;;;;21.90;99.90;;;;;;4401662;32;20365;-73
2022/08/15 04:58:37;;;;;;;;;;;22.00;99.90;;;;;;4401870;32;19948;-74
2022/08/15 05:01:05;;;;;;;;;;;22.00;99.90;;;;;;4400481;32;19956;-73
2022/08/15 05:03:31;;;;;;;;;;;22.20;99.90;;;;;;4401245;32;20370;-73
2022/08/15 05:05:58;;;;;;;;;;;22.20;99.90;;;;;;4407656;32;19945;-74
2022/08/15 05:08:26;;;;;;;;;;;22.30;99.90;;;;;;4401167;32;19961;-74
2022/08/15 05:10:56;;;;;;;;;;;22.30;99.90;;;;;;4386700;32;20029;-74
2022/08/15 05:13:24;;;;;;;;;;;22.30;99.90;;;;;;4396198;32;19949;-74
2022/08/15 05:15:50;;;;;;;;;;;22.30;99.90;;;;;;4399877;32;20287;-74
2022/08/15 05:18:15;;;;;;;;;;;22.30;99.90;;;;;;4399862;32;19956;-74
2022/08/15 05:20:41;;;;;;;;;;;22.30;99.90;;;;;;4400820;32;19985;-73
2022/08/15 05:23:08;;;;;;;;;;;22.30;99.90;;;;;;4401129;32;19953;-73
2022/08/15 05:25:35;;;;;;;;;;;22.40;99.90;;;;;;4401601;32;19949;-74
2022/08/15 05:28:01;;;;;;;;;;;22.50;99.90;;;;;;4400534;32;19962;-74
2022/08/15 05:30:26;;;;;;;;;;;22.50;99.90;;;;;;4388180;32;20011;-74
2022/08/15 05:33:10;;;;;;;;;;;22.50;99.90;;;;;;4394876;32;20304;-74
2022/08/15 05:35:41;;;;;;;;;;;22.50;99.90;;;;;;4401991;32;19945;-74
2022/08/15 05:38:09;;;;;;;;;;;22.60;99.90;;;;;;4401792;32;19960;-74
2022/08/15 05:40:38;;;;;;;;;;;22.70;99.90;;;;;;4401295;32;19941;-74
2022/08/15 05:43:09;;;;;;;;;;;22.80;99.90;;;;;;4402009;32;19996;-74
2022/08/15 05:45:35;;;;;;;;;;;22.90;99.90;;;;;;4404467;32;19953;-74
2022/08/15 05:48:07;;;;;;;;;;;23.00;99.90;;;;;;4399856;32;19953;-74
2022/08/15 05:50:36;;;;;;;;;;;23.10;99.90;;;;;;4400133;32;20430;-74
2022/08/15 05:53:07;;;;;;;;;;;23.30;99.90;;;;;;4400826;32;19949;-74
2022/08/15 05:55:40;;;;;;;;;;;23.30;99.90;;;;;;4410238;32;19949;-74
2022/08/15 05:58:22;;;;;;;;;;;23.40;99.90;;;;;;4414834;32;19959;-75
2022/08/15 06:00:50;;;;;;;;;;;23.50;99.90;;;;;;4415338;32;19949;-73
2022/08/15 06:03:21;;;;;;;;;;;23.50;99.90;;;;;;4415707;32;19961;-73
2022/08/15 06:05:50;;;;;;;;;;;23.40;99.90;;;;;;4400250;32;19945;-74
2022/08/15 06:08:17;;;;;;;;;;;23.40;99.90;;;;;;4395549;32;19955;-74
2022/08/15 06:11:04;;;;;;;;;;;23.40;99.90;;;;;;4386104;32;19950;-74
2022/08/15 06:13:32;;;;;;;;;;;23.40;99.90;;;;;;4386207;32;19957;-74
2022/08/15 06:16:01;;;;;;;;;;;23.50;99.90;;;;;;4400357;32;20038;-74
2022/08/15 06:18:28;;;;;;;;;;;23.40;99.90;;;;;;4401584;32;20378;-73
2022/08/15 06:21:15;;;;;;;;;;;23.40;99.90;;;;;;4400869;32;19982;-74
2022/08/15 06:23:47;;;;;;;;;;;23.40;99.90;;;;;;4389886;32;20349;-74
2022/08/15 06:26:36;;;;;;;;;;;23.40;99.90;;;;;;4398960;32;20319;-74
2022/08/15 06:29:09;;;;;;;;;;;23.40;99.90;;;;;;4389019;32;19958;-74
2022/08/15 06:31:37;;;;;;;;;;;23.50;99.90;;;;;;4401719;32;20418;-74
2022/08/15 06:34:03;;;;;;;;;;;23.50;99.90;;;;;;4400441;32;19953;-74
2022/08/15 06:36:35;;;;;;;;;;;23.50;99.90;;;;;;4400898;32;19941;-74
2022/08/15 06:39:04;;;;;;;;;;;23.60;99.90;;;;;;4399030;32;19949;-74
2022/08/15 06:41:35;;;;;;;;;;;23.70;99.90;;;;;;4399281;32;20039;-74
2022/08/15 06:44:01;;;;;;;;;;;23.70;99.90;;;;;;4400120;32;19941;-74
2022/08/15 06:46:29;;;;;;;;;;;23.70;99.90;;;;;;4400135;32;19988;-74
2022/08/15 06:48:55;;;;;;;;;;;23.80;99.90;;;;;;4400006;32;19957;-73
2022/08/15 06:51:21;;;;;;;;;;;23.80;99.90;;;;;;4400524;32;19952;-75
2022/08/15 06:53:49;;;;;;;;;;;23.90;99.90;;;;;;4399631;32;19956;-73
2022/08/15 06:56:22;;;;;;;;;;;24.00;99.90;;;;;;4407844;32;20330;-73
2022/08/15 06:58:55;;;;;;;;;;;24.00;99.90;;;;;;4399688;32;19961;-73
2022/08/15 07:01:28;;;;;;;;;;;24.00;99.90;;;;;;4398920;32;20008;-74
2022/08/15 07:04:05;;;;;;;;;;;24.00;99.90;;;;;;4399206;32;19950;-74
2022/08/15 07:06:35;;;;;;;;;;;24.10;99.90;;;;;;4384160;32;19974;-74
2022/08/15 07:09:07;;;;;;;;;;;24.20;99.90;;;;;;4408763;32;20307;-74
2022/08/15 07:11:38;;;;;;;;;;;24.20;99.90;;;;;;4403180;32;20351;-74
2022/08/15 07:14:08;;;;;;;;;;;24.40;99.90;;;;;;4400847;32;19942;-74
2022/08/15 07:16:42;;;;;;;;;;;24.50;99.90;;;;;;4398978;32;20009;-74
2022/08/15 07:19:09;;;;;;;;;;;24.50;99.90;;;;;;4400202;32;19941;-74
2022/08/15 07:21:34;;;;;;;;;;;24.60;99.90;;;;;;4399275;32;19946;-73
2022/08/15 07:24:01;;;;;;;;;;;24.70;99.90;;;;;;4399811;32;19956;-74
2022/08/15 07:26:28;;;;;;;;;;;24.70;99.90;;;;;;4400343;32;19956;-74
2022/08/15 07:28:55;;;;;;;;;;;24.70;99.90;;;;;;4399796;32;19949;-74
2022/08/15 07:31:27;;;;;;;;;;;24.70;99.90;;;;;;4400110;32;19949;-74
2022/08/15 07:33:53;;;;;;;;;;;24.70;99.90;;;;;;4399686;32;19945;-74
2022/08/15 07:36:23;;;;;;;;;;;24.70;99.90;;;;;;4399274;32;19964;-74
2022/08/15 07:38:49;;;;;;;;;;;24.80;99.90;;;;;;4400443;32;19945;-74
2022/08/15 07:41:21;;;;;;;;;;;24.90;99.90;;;;;;4399251;32;19973;-74
2022/08/15 07:43:47;;;;;;;;;;;25.00;99.90;;;;;;4399816;32;19949;-74
2022/08/15 07:46:14;;;;;;;;;;;25.20;99.90;;;;;;4403005;32;20238;-74
2022/08/15 07:48:40;;;;;;;;;;;25.30;99.90;;;;;;4400369;32;20277;-74
2022/08/15 07:51:15;;;;;;;;;;;25.40;99.90;;;;;;4397464;32;19949;-74
2022/08/15 07:53:48;;;;;;;;;;;25.40;99.90;;;;;;4399735;32;20004;-74
2022/08/15 07:56:15;;;;;;;;;;;25.40;99.90;;;;;;4394352;32;19945;-74
2022/08/15 07:58:41;;;;;;;;;;;25.60;99.90;;;;;;4398716;32;19945;-74
2022/08/15 08:01:08;;;;;;;;;;;25.70;99.90;;;;;;4397460;32;20040;-74
2022/08/15 08:03:35;;;;;;;;;;;25.70;99.90;;;;;;4398289;32;19942;-73
2022/08/15 08:06:05;;;;;;;;;;;25.70;99.90;;;;;;4399004;32;19957;-76
2022/08/15 08:08:38;;;;;;;;;;;25.70;99.90;;;;;;4391639;32;19961;-75
2022/08/15 08:11:06;;;;;;;;;;;25.70;99.90;;;;;;4394975;32;20024;-76
2022/08/15 08:13:38;;;;;;;;;;;25.70;99.90;;;;;;4400135;32;19957;-76
2022/08/15 08:16:07;;;;;;;;;;;25.90;99.90;;;;;;4398290;32;19999;-76
2022/08/15 08:18:42;;;;;;;;;;;26.20;99.90;;;;;;4399933;32;19949;-76
2022/08/15 08:21:11;;;;;;;;;;;26.30;99.90;;;;;;4399073;32;19959;-76
2022/08/15 08:23:45;;;;;;;;;;;26.30;99.90;;;;;;4402840;32;19954;-76
2022/08/15 08:26:31;;;;;;;;;;;26.30;99.90;;;;;;4400721;32;21237;-75
2022/08/15 08:29:01;;;;;;;;;;;26.40;99.90;;;;;;4392210;32;20287;-76
2022/08/15 08:33:28;;;;;;;0.45;0.40;;;26.50;99.90;;;;;;4454510;32;79971;-67
2022/08/15 08:36:01;;;;;;;0.30;0.30;;;26.50;99.90;;;;;;4458909;32;20544;-67
2022/08/15 08:38:36;;;;;;;0.55;0.55;;;26.50;99.90;;;;;;4472426;32;20409;-66
2022/08/15 08:41:34;;;;;;;0.40;0.40;;;26.60;99.90;;;;;;4459875;32;20064;-68
2022/08/15 08:44:20;;;;;;;0.47;0.47;;;26.60;99.90;;;;;;4456685;32;20073;-67
2022/08/15 08:47:16;;;;;;;0.22;0.22;;;26.70;99.90;;;;;;4462935;32;20084;-68
2022/08/15 08:49:57;;;;;;;1.33;0.60;;;26.90;99.90;;;;;;4456066;32;20069;-68
2022/08/15 08:52:40;;;;;;;0.35;0.35;;;26.90;99.90;;;;;;4458410;32;20072;-67
2022/08/15 08:55:15;;;;;;;0.62;0.60;;;27.00;99.90;;;;;;4461088;32;20061;-67
2022/08/15 08:57:46;;;;;;;0.50;0.50;;;26.90;99.90;;;;;;4458727;32;20135;-67
2022/08/15 09:00:17;;;;;;;;;;;27.00;99.90;;;;;;4467256;32;20073;-67
2022/08/15 09:02:49;;;;;;;2.15;0.37;;;27.20;99.90;;;;;;4460229;32;19948;-67
2022/08/15 09:05:36;;;;;;;0.40;0.40;;;27.20;99.90;;;;;;4457344;32;20069;-67
2022/08/15 09:08:10;;;;;;;0.88;0.50;;;27.30;99.90;;;;;;4458618;32;20064;-67
2022/08/15 09:10:36;;;;;;;2.55;1.15;;;27.60;99.90;;;;;;4457304;32;20398;-67
2022/08/15 09:13:36;;;;;;;1.60;0.95;;;27.70;99.90;;;;;;4456205;32;20080;-67
2022/08/15 09:15:55;;;;;;;0.37;0.37;;;27.70;99.90;;;;;;4456367;32;20497;-67
2022/08/15 09:18:29;;;;;;;0.22;0.22;;;27.50;99.90;;;;;;4455755;32;20523;-67
2022/08/15 09:20:56;;;;;;;0.52;0.45;;;27.50;99.90;;;;;;4458479;32;20532;-67
2022/08/15 09:23:23;;;;;;;0.20;0.20;;;27.70;99.90;;;;;;4456927;32;20085;-67
2022/08/15 09:26:13;;;;;;;0.60;0.60;;;28.00;99.90;;;;;;4457103;32;20121;-67
2022/08/15 09:28:42;;;;;;;0.45;0.45;;;28.10;99.90;;;;;;4454936;32;20157;-67
2022/08/15 09:31:18;;;;;;;1.37;0.82;;;28.30;99.90;;;;;;4455282;32;20229;-67
2022/08/15 09:34:01;;;;;;;0.37;0.37;;;28.40;99.90;;;;;;4457248;32;20506;-67
2022/08/15 09:37:00;;;;;;;1.12;0.45;;;28.40;99.90;;;;;;4457965;32;20426;-67
2022/08/15 09:39:52;;;;;;;3.55;1.33;;;28.20;99.90;;;;;;4458323;32;20539;-67
2022/08/15 09:42:47;;;;;;;0.88;0.37;;;28.20;99.90;;;;;;4469941;32;20146;-67
2022/08/15 09:45:52;;;;;;;0.20;0.20;;;28.40;99.90;;;;;;4457927;32;20076;-67
2022/08/15 09:48:45;;;;;;;0.80;0.80;;;28.40;99.90;;;;;;4447046;32;20075;-67
2022/08/15 09:51:13;;;;;;;0.50;0.50;;;28.30;99.90;;;;;;4447777;32;20069;-67
2022/08/15 09:54:05;;;;;;;0.30;0.30;;;28.10;99.90;;;;;;4461592;32;20076;-67
2022/08/15 09:56:34;;;;;;;1.37;0.70;;;28.20;99.90;;;;;;4445688;32;20072;-67
2022/08/15 09:59:07;;;;;;;0.20;0.20;;;28.40;99.90;;;;;;4458852;32;20073;-67
2022/08/15 10:01:42;;;;;;;0.80;0.68;;;28.80;99.90;;;;;;4461492;32;20442;-67
2022/08/15 10:04:12;;;;;;;0.55;0.52;;;29.10;99.90;;;;;;4462432;32;20134;-68
2022/08/15 10:07:07;;;;;;;1.25;0.55;;;29.40;99.90;;;;;;4461734;32;20064;-67
2022/08/15 10:09:36;;;;;;;1.02;0.40;;;29.60;99.90;;;;;;4452507;32;20064;-68
2022/08/15 10:12:21;;;;;;;1.00;0.87;;;29.70;99.90;;;;;;4460841;32;20137;-67
2022/08/15 10:14:53;;;;;;;0.65;0.50;;;29.70;99.80;;;;;;4461513;32;20061;-67
2022/08/15 10:17:38;;;;;;;1.85;0.50;;;29.80;99.50;;;;;;4460919;32;20073;-68
2022/08/15 10:20:22;;;;;;;0.40;0.40;;;30.00;99.10;;;;;;4451279;32;20093;-68
2022/08/15 10:23:04;;;;;;;0.65;0.65;;;29.80;99.00;;;;;;4451763;32;20088;-68
2022/08/15 10:25:35;;;;;;;1.55;0.52;;;29.50;99.10;;;;;;4462124;32;20605;-68
2022/08/15 10:28:06;;;;;;;0.40;0.40;;;29.10;99.60;;;;;;4460247;32;20073;-67
2022/08/15 10:30:37;;;;;;;3.53;1.05;;;28.90;99.90;;;;;;4460807;32;20073;-67
2022/08/15 10:33:27;;;;;;;0.40;0.40;;;29.20;99.90;;;;;;4461096;32;20057;-68
2022/08/15 10:36:02;;;;;;;1.45;0.70;;;29.70;98.60;;;;;;4449721;32;20512;-69
2022/08/15 10:38:29;;;;;;;0.35;0.35;;;30.00;98.30;;;;;;4451424;32;20081;-68
2022/08/15 10:41:21;;;;;;;1.25;0.68;;;30.00;98.00;;;;;;4444182;32;20057;-68
2022/08/15 10:44:01;;;;;;;1.23;0.60;;;29.90;97.70;;;;;;4450620;32;20084;-69
2022/08/15 10:46:40;;;;;;;0.30;0.30;;;29.80;97.80;;;;;;4449211;32;20073;-69
2022/08/15 10:49:42;;;;;;;0.43;0.35;;;30.10;97.30;;;;;;4443376;32;20057;-69
2022/08/15 10:52:27;;;;;;;1.00;0.52;;;30.50;97.10;;;;;;4443807;32;20065;-68
2022/08/15 10:55:04;;;;;;;0.65;0.65;;;30.10;97.10;;;;;;4443383;32;20068;-68
2022/08/15 10:57:39;;;;;;;0.28;0.28;;;30.10;97.50;;;;;;4448121;32;20444;-69
2022/08/15 11:00:07;;;;;;;0.90;0.47;;;30.00;97.80;;;;;;4459717;32;20430;-68
2022/08/15 11:02:45;;;;;;;1.80;0.70;;;30.10;97.60;;;;;;4453865;32;20078;-70
2022/08/15 11:05:17;;;;;;;1.15;0.82;;;30.10;97.50;;;;;;4444117;32;20461;-69
2022/08/15 11:07:52;;;;;;;6.00;0.17;;;30.40;97.00;;;;;;4449770;32;20072;-71
2022/08/15 11:10:21;;;;;;;0.30;0.30;;;30.40;96.70;;;;;;4461351;32;20069;-68
2022/08/15 11:12:51;;;;;;;0.20;0.20;;;30.40;96.70;;;;;;4459930;32;20057;-68
2022/08/15 11:15:22;;;;;;;0.20;0.20;;;30.70;96.20;;;;;;4445397;32;20072;-69
2022/08/15 11:18:00;;;;;;;1.60;0.45;;;30.90;95.00;;;;;;4453177;32;20511;-67
2022/08/15 11:20:36;;;;;;;0.30;0.30;;;31.10;95.50;;;;;;4458042;32;20068;-68
2022/08/15 11:23:03;;;;;;;0.20;0.20;;;31.70;94.70;;;;;;4460618;32;20512;-68
2022/08/15 11:25:40;;;;;;;1.27;0.47;;;32.00;94.60;;;;;;4460698;32;20123;-68
2022/08/15 11:28:12;;;;;;;0.85;0.52;;;31.90;94.30;;;;;;4456789;32;20085;-68
2022/08/15 11:30:40;;;;;;;7.90;0.60;;;31.40;94.80;;;;;;4459220;32;20072;-68
2022/08/15 11:33:26;;;;;;;0.55;0.47;;;31.10;95.30;;;;;;4460431;32;20060;-67
2022/08/15 11:36:12;;;;;;;0.45;0.45;;;31.10;95.00;;;;;;4449535;32;20122;-69
2022/08/15 11:38:43;;;;;;;0.50;0.30;;;31.20;94.60;;;;;;4452818;32;20092;-69
2022/08/15 11:41:09;;;;;;;0.40;0.40;;;30.90;94.70;;;;;;4445846;32;20112;-68
2022/08/15 11:43:37;;;;;;;0.50;0.50;;;30.90;95.00;;;;;;4445302;32;20120;-69
2022/08/15 11:46:03;;;;;;;2.10;0.85;;;31.20;94.50;;;;;;4450377;32;20523;-69
2022/08/15 11:48:34;;;;;;;0.10;0.10;;;31.10;94.50;;;;;;4460468;32;20072;-69
2022/08/15 11:51:06;;;;;;;2.55;0.62;;;30.70;94.90;;;;;;4460171;32;20483;-68
2022/08/15 11:53:37;;;;;;;1.27;0.52;;;30.50;95.00;;;;;;4460003;32;20115;-68
2022/08/15 11:56:03;;;;;;;2.17;0.68;;;30.80;95.30;;;;;;4444300;32;20072;-69
2022/08/15 11:58:34;;;;;;;0.28;0.28;;;31.60;94.30;;;;;;4455538;32;20076;-69
2022/08/15 12:01:22;;;;;;;1.10;0.32;;;32.60;92.80;;;;;;4445749;32;20073;-69
2022/08/15 12:04:07;;;;;;;0.47;0.17;;;33.20;91.60;;;;;;4450091;32;20536;-68
2022/08/15 12:06:36;;;;;;;0.28;0.28;;;32.40;92.00;;;;;;4445483;32;20054;-68
2022/08/15 12:09:07;;;;;;;1.98;1.20;;;31.70;92.40;;;;;;4445361;32;20065;-68
2022/08/15 12:11:41;;;;;;;0.10;0.10;;;31.30;93.40;;;;;;4444462;32;20073;-68
2022/08/15 12:14:25;;;;;;;10.10;0.95;;;31.40;93.00;;;;;;4445166;32;20069;-68
2022/08/15 12:16:59;;;;;;;0.50;0.32;;;32.40;92.10;;;;;;4445281;32;20528;-68
2022/08/15 12:19:29;;;;;;;0.52;0.52;;;33.10;91.30;;;;;;4447568;32;20122;-69
2022/08/15 12:21:59;;;;;;;0.43;0.43;;;33.60;90.40;;;;;;4460246;32;20114;-68
2022/08/15 12:24:29;;;;;;;2.05;0.43;;;34.20;90.10;;;;;;4459998;32;20624;-69
2022/08/15 12:26:57;;;;;;;0.00;0.00;;;34.70;87.70;;;;;;4461224;32;20049;-69
2022/08/15 12:29:24;;;;;;;0.65;0.30;;;34.00;87.70;;;;;;4460777;32;20138;-68
2022/08/15 12:31:52;;;;;;;0.25;0.25;;;33.30;89.80;;;;;;4460702;32;20060;-68
2022/08/15 12:34:21;;;;;;;0.22;0.22;;;32.80;89.70;;;;;;4459811;32;20085;-68
2022/08/15 12:36:47;;;;;;;0.43;0.40;;;32.40;90.10;;;;;;4459939;32;20077;-68
2022/08/15 12:39:14;;;;;;;0.25;0.25;;;32.50;90.20;;;;;;4458173;32;20470;-68
2022/08/15 12:41:43;;;;;;;2.55;0.65;;;32.40;90.30;;;;;;4446830;32;20069;-68
2022/08/15 12:44:19;;;;;;;2.08;0.45;;;32.10;90.50;;;;;;4443818;32;20078;-68
2022/08/15 12:46:44;;;;;;;1.17;0.30;;;31.70;90.80;;;;;;4454236;32;20525;-69
2022/08/15 12:49:10;;;;;;;0.55;0.55;;;31.50;91.40;;;;;;4454274;32;20065;-69
2022/08/15 12:51:35;;;;;;;0.62;0.57;;;32.00;91.00;;;;;;4443679;32;20073;-69
2022/08/15 12:54:01;;;;;;;0.20;0.20;;;32.40;90.40;;;;;;4447057;32;20080;-70
2022/08/15 12:56:26;;;;;;;0.45;0.20;;;33.20;89.00;;;;;;4460144;32;20068;-70
2022/08/15 12:58:52;;;;;;;3.30;0.70;;;34.10;87.70;;;;;;4455994;32;20073;-68
2022/08/15 13:01:18;;;;;;;0.15;0.15;;;34.90;83.70;;;;;;4445442;32;20065;-70
2022/08/15 13:03:45;;;;;;;0.20;0.20;;;34.80;81.20;;;;;;4444000;32;20515;-69
2022/08/15 13:06:22;;;;;;;0.50;0.50;;;34.90;81.00;;;;;;4444440;32;20119;-68
2022/08/15 13:08:48;;;;;;;1.65;0.35;;;35.40;80.50;;;;;;4445601;32;20066;-68
2022/08/15 13:11:14;;;;;;;0.30;0.30;;;35.60;79.10;;;;;;4444547;32;20120;-69
2022/08/15 13:13:40;;;;;;;0.10;0.10;;;34.90;78.80;;;;;;4448448;32;20329;-68
2022/08/15 13:16:07;;;;;;;1.35;0.70;;;33.90;81.70;;;;;;4460251;32;20116;-68
2022/08/15 13:18:34;;;;;;;0.57;0.57;;;33.70;82.10;;;;;;4455779;32;20493;-69
2022/08/15 13:23:51;;;;;;;0.30;0.30;;;33.00;83.60;;;;;;4460548;32;20089;-68
2022/08/15 13:26:17;;;;;;;1.08;0.20;;;33.00;85.10;;;;;;4454045;32;20077;-68
2022/08/15 13:28:46;;;;;;;0.35;0.30;;;34.10;80.90;;;;;;4446695;32;20081;-68
2022/08/15 13:31:14;;;;;;;0.88;0.47;;;34.40;79.50;;;;;;4447098;32;20143;-68
2022/08/15 13:33:40;;;;;;;2.25;0.45;;;33.90;80.40;;;;;;4461086;32;20123;-68
2022/08/15 13:36:10;;;;;;;0.08;0.08;;;33.20;82.40;;;;;;4451852;32;20409;-69
2022/08/15 13:38:41;;;;;;;0.20;0.20;;;33.60;81.70;;;;;;4448818;32;20496;-69
2022/08/15 13:41:07;;;;;;;0.20;0.20;;;34.10;79.60;;;;;;4455226;32;20550;-69
2022/08/15 13:43:33;;;;;;;0.10;0.10;;;33.70;80.90;;;;;;4460425;32;20116;-68
2022/08/15 13:45:59;;;;;;;0.32;0.20;;;33.30;81.60;;;;;;4455641;32;20064;-68
2022/08/15 13:48:32;;;;;;;0.10;0.10;;;33.30;82.60;;;;;;4462978;32;20081;-70
2022/08/15 13:50:59;;;;;;;0.10;0.10;;;33.80;79.10;;;;;;4461905;32;20507;-69
2022/08/15 13:53:24;;;;;;;0.45;0.45;;;34.20;79.40;;;;;;4462977;32;20073;-69
2022/08/15 13:55:50;;;;;;;0.20;0.20;;;34.40;77.30;;;;;;4456973;32;20444;-69
2022/08/15 13:58:15;;;;;;;0.68;0.40;;;34.40;77.00;;;;;;4461270;32;20139;-68
2022/08/15 14:00:41;;;;;;;0.10;0.10;;;34.40;76.40;;;;;;4461661;32;20081;-70
2022/08/15 14:03:06;;;;;;;0.10;0.10;;;34.30;76.90;;;;;;4461237;32;20081;-69